createdAt,value
2018-06-13T00:02:17.571Z,25.30
2018-06-13T00:04:45.638Z,25.30
2018-06-13T00:07:13.711Z,25.30
2018-06-13T00:09:42.088Z,25.30
2018-06-13T00:12:10.163Z,25.30
2018-06-13T00:14:38.497Z,25.30
2018-06-13T00:17:06.587Z,25.30
2018-06-13T00:19:34.777Z,25.30
2018-06-13T00:22:02.850Z,25.30
2018-06-13T00:24:30.917Z,25.30
2018-06-13T00:26:58.963Z,25.30
2018-06-13T00:29:27.071Z,25.30
2018-06-13T00:31:55.134Z,25.30
2018-06-13T00:34:23.202Z,25.30
2018-06-13T00:36:51.291Z,25.30
2018-06-13T00:39:19.354Z,25.30
2018-06-13T00:41:47.418Z,25.30
2018-06-13T00:44:15.500Z,25.30
2018-06-13T00:46:43.556Z,25.30
2018-06-13T00:49:11.623Z,25.30
2018-06-13T00:51:39.712Z,25.30
2018-06-13T00:54:07.863Z,25.30
2018-06-13T00:56:35.932Z,25.20
2018-06-13T00:59:03.994Z,25.20
2018-06-13T01:01:32.050Z,25.20
2018-06-13T01:04:00.161Z,25.20
2018-06-13T01:06:28.236Z,25.20
2018-06-13T01:08:56.590Z,25.20
2018-06-13T01:11:24.661Z,25.20
2018-06-13T01:13:52.716Z,25.20
2018-06-13T01:16:21.027Z,25.20
2018-06-13T01:18:49.323Z,25.30
2018-06-13T01:21:17.403Z,25.30
2018-06-13T01:23:45.664Z,25.30
2018-06-13T01:26:13.724Z,25.30
2018-06-13T01:28:41.779Z,25.20
2018-06-13T01:31:09.878Z,25.20
2018-06-13T01:33:38.162Z,25.20
2018-06-13T01:36:06.265Z,25.20
2018-06-13T01:41:03.187Z,25.20
2018-06-13T01:43:31.246Z,25.20
2018-06-13T01:45:59.314Z,25.20
2018-06-13T01:48:27.379Z,25.20
2018-06-13T01:50:57.297Z,25.20
2018-06-13T01:53:25.627Z,25.20
2018-06-13T01:55:53.687Z,25.20
2018-06-13T01:58:21.770Z,25.20
2018-06-13T02:00:49.964Z,25.20
2018-06-13T02:03:18.035Z,25.20
2018-06-13T02:05:46.095Z,25.20
2018-06-13T02:08:14.151Z,25.20
2018-06-13T02:10:42.342Z,25.20
2018-06-13T02:13:10.383Z,25.20
2018-06-13T02:18:06.406Z,25.20
2018-06-13T02:20:44.147Z,25.20
2018-06-13T02:23:12.202Z,25.20
2018-06-13T02:25:40.539Z,25.20
2018-06-13T02:28:08.927Z,25.10
2018-06-13T02:30:36.986Z,25.10
2018-06-13T02:33:05.055Z,25.10
2018-06-13T02:35:33.118Z,25.10
2018-06-13T02:38:01.178Z,25.20
2018-06-13T02:40:29.499Z,25.20
2018-06-13T02:42:57.678Z,25.20
2018-06-13T02:45:25.763Z,25.20
2018-06-13T02:47:53.930Z,25.10
2018-06-13T02:50:21.994Z,25.10
2018-06-13T02:52:50.306Z,25.20
2018-06-13T02:55:18.401Z,25.10
2018-06-13T02:57:46.491Z,25.10
2018-06-13T03:00:14.558Z,25.10
2018-06-13T03:02:42.614Z,25.20
2018-06-13T03:05:10.716Z,25.10
2018-06-13T03:07:38.794Z,25.10
2018-06-13T03:10:06.891Z,25.10
2018-06-13T03:12:35.186Z,25.10
2018-06-13T03:15:03.278Z,25.10
2018-06-13T03:17:31.334Z,25.10
2018-06-13T03:19:59.414Z,25.10
2018-06-13T03:22:27.475Z,25.20
2018-06-13T03:24:55.539Z,25.10
2018-06-13T03:27:23.592Z,25.10
2018-06-13T03:29:51.686Z,25.10
2018-06-13T03:32:19.758Z,25.10
2018-06-13T03:34:47.831Z,25.10
2018-06-13T03:37:15.882Z,25.10
2018-06-13T03:39:43.967Z,25.10
2018-06-13T03:42:12.046Z,25.10
2018-06-13T03:44:40.122Z,25.10
2018-06-13T03:47:08.178Z,25.10
2018-06-13T03:49:36.551Z,25.10
2018-06-13T03:52:04.642Z,25.10
2018-06-13T03:54:32.708Z,25.10
2018-06-13T03:57:00.776Z,25.10
2018-06-13T03:59:29.111Z,25.10
2018-06-13T04:01:57.183Z,25.10
2018-06-13T04:04:25.479Z,25.10
2018-06-13T04:06:53.871Z,25.20
2018-06-13T04:09:22.179Z,25.10
2018-06-13T04:11:50.303Z,25.20
2018-06-13T04:14:18.371Z,25.10
2018-06-13T04:16:46.455Z,25.10
2018-06-13T04:19:14.531Z,25.10
2018-06-13T04:21:42.610Z,25.20
2018-06-13T04:24:11.042Z,25.20
2018-06-13T04:26:39.106Z,25.10
2018-06-13T04:29:07.209Z,25.10
2018-06-13T04:31:35.284Z,25.10
2018-06-13T04:34:03.361Z,25.10
2018-06-13T04:36:31.460Z,25.10
2018-06-13T04:38:59.731Z,25.10
2018-06-13T04:41:27.794Z,25.10
2018-06-13T04:43:55.852Z,25.10
2018-06-13T04:46:23.925Z,25.10
2018-06-13T04:48:52.234Z,25.10
2018-06-13T04:51:20.311Z,25.10
2018-06-13T04:53:48.360Z,25.10
2018-06-13T04:56:16.451Z,25.10
2018-06-13T04:58:44.515Z,25.10
2018-06-13T05:03:40.465Z,25.10
2018-06-13T05:06:08.539Z,25.20
2018-06-13T05:08:36.606Z,25.20
2018-06-13T05:11:04.695Z,25.10
2018-06-13T05:13:32.760Z,25.20
2018-06-13T05:16:00.851Z,25.20
2018-06-13T05:18:28.918Z,25.20
2018-06-13T05:20:57.014Z,25.20
2018-06-13T05:23:25.072Z,25.20
2018-06-13T05:25:53.146Z,25.20
2018-06-13T05:28:21.207Z,25.20
2018-06-13T05:30:49.288Z,25.20
2018-06-13T05:33:17.590Z,25.20
2018-06-13T05:35:45.767Z,25.20
2018-06-13T05:38:14.116Z,25.20
2018-06-13T05:40:42.167Z,25.20
2018-06-13T05:43:10.232Z,25.20
2018-06-13T05:45:38.308Z,25.20
2018-06-13T05:48:06.365Z,25.20
2018-06-13T05:50:34.523Z,25.20
2018-06-13T05:53:02.583Z,25.20
2018-06-13T05:55:30.666Z,25.20
2018-06-13T05:57:58.737Z,25.20
2018-06-13T06:00:26.796Z,25.20
2018-06-13T06:02:54.901Z,25.20
2018-06-13T06:05:22.944Z,25.10
2018-06-13T06:07:51.046Z,25.10
2018-06-13T06:10:19.144Z,25.10
2018-06-13T06:12:47.171Z,25.10
2018-06-13T06:15:15.531Z,25.10
2018-06-13T06:17:43.600Z,25.10
2018-06-13T06:20:11.651Z,25.10
2018-06-13T06:25:07.574Z,25.20
2018-06-13T06:27:35.676Z,25.20
2018-06-13T06:30:03.758Z,25.20
2018-06-13T06:32:32.130Z,25.20
2018-06-13T06:35:00.435Z,25.20
2018-06-13T06:37:28.502Z,25.20
2018-06-13T06:39:56.883Z,25.20
2018-06-13T06:42:24.955Z,25.30
2018-06-13T06:44:53.029Z,25.30
2018-06-13T06:47:21.093Z,25.30
2018-06-13T06:49:49.456Z,25.30
2018-06-13T06:52:17.526Z,25.30
2018-06-13T06:54:45.615Z,25.30
2018-06-13T06:57:13.694Z,25.30
2018-06-13T06:59:42.067Z,25.30
2018-06-13T07:02:10.154Z,25.30
2018-06-13T07:04:38.206Z,25.30
2018-06-13T07:07:06.266Z,25.30
2018-06-13T07:09:34.326Z,25.20
2018-06-13T07:12:02.395Z,25.20
2018-06-13T07:14:30.670Z,25.20
2018-06-13T07:16:58.742Z,25.20
2018-06-13T07:19:26.811Z,25.20
2018-06-13T07:21:54.877Z,25.20
2018-06-13T07:24:22.930Z,25.20
2018-06-13T07:26:50.980Z,25.30
2018-06-13T07:29:19.047Z,25.30
2018-06-13T07:31:47.411Z,25.30
2018-06-13T07:34:15.525Z,25.30
2018-06-13T07:36:43.571Z,25.20
2018-06-13T07:39:11.643Z,25.20
2018-06-13T07:41:39.715Z,25.30
2018-06-13T07:44:07.774Z,25.30
2018-06-13T07:46:35.835Z,25.20
2018-06-13T07:49:03.945Z,25.20
2018-06-13T07:51:32.011Z,25.30
2018-06-13T07:54:00.070Z,25.30
2018-06-13T07:56:28.127Z,25.30
2018-06-13T07:58:56.478Z,25.30
2018-06-13T08:01:24.534Z,25.30
2018-06-13T08:03:52.607Z,25.30
2018-06-13T08:06:20.654Z,25.30
2018-06-13T08:08:48.773Z,25.30
2018-06-13T08:11:16.786Z,25.30
2018-06-13T08:13:44.841Z,25.30
2018-06-13T08:16:12.903Z,25.30
2018-06-13T08:18:40.978Z,25.30
2018-06-13T08:21:09.604Z,25.30
2018-06-13T08:23:37.666Z,25.30
2018-06-13T08:26:05.731Z,25.30
2018-06-13T08:28:34.179Z,25.30
2018-06-13T08:31:02.253Z,25.30
2018-06-13T08:33:30.321Z,25.30
2018-06-13T08:35:58.381Z,25.30
2018-06-13T08:38:26.438Z,25.30
2018-06-13T08:40:54.491Z,25.30
2018-06-13T08:43:22.822Z,25.30
2018-06-13T08:45:50.875Z,25.30
2018-06-13T08:48:18.946Z,25.30
2018-06-13T08:50:47.011Z,25.30
2018-06-13T08:53:15.072Z,25.30
2018-06-13T08:55:43.180Z,25.30
2018-06-13T08:58:11.186Z,25.30
2018-06-13T09:00:39.547Z,25.30
2018-06-13T09:03:07.619Z,25.30
2018-06-13T09:05:35.678Z,25.30
2018-06-13T09:08:03.735Z,25.30
2018-06-13T09:10:31.807Z,25.30
2018-06-13T09:12:59.860Z,25.30
2018-06-13T09:15:27.935Z,25.30
2018-06-13T09:17:55.995Z,25.30
2018-06-13T09:20:24.068Z,25.30
2018-06-13T09:22:52.185Z,25.30
2018-06-13T09:25:20.278Z,25.30
2018-06-13T09:27:48.330Z,25.30
2018-06-13T09:30:16.467Z,25.30
2018-06-13T09:32:44.843Z,25.30
2018-06-13T09:35:12.931Z,25.30
2018-06-13T09:37:41.007Z,25.30
2018-06-13T09:40:09.590Z,25.30
2018-06-13T09:42:37.657Z,25.30
2018-06-13T09:45:05.731Z,25.30
2018-06-13T09:47:33.795Z,25.30
2018-06-13T09:50:01.902Z,25.30
2018-06-13T09:52:29.915Z,25.30
2018-06-13T09:54:57.982Z,25.30
2018-06-13T09:57:26.047Z,25.30
2018-06-13T09:59:59.931Z,25.30
2018-06-13T10:02:33.420Z,25.40
2018-06-13T10:07:29.390Z,25.40
2018-06-13T10:09:57.737Z,25.40
2018-06-13T10:14:53.683Z,25.30
2018-06-13T10:17:21.718Z,25.30
2018-06-13T10:19:49.786Z,25.30
2018-06-13T10:22:17.905Z,25.30
2018-06-13T10:24:45.946Z,25.30
2018-06-13T10:27:19.469Z,25.30
2018-06-13T10:29:47.754Z,25.30
2018-06-13T10:32:15.910Z,25.30
2018-06-13T10:34:43.971Z,25.30
2018-06-13T10:37:12.298Z,25.30
2018-06-13T10:39:40.394Z,25.40
2018-06-13T10:42:08.450Z,25.40
2018-06-13T10:44:36.510Z,25.40
2018-06-13T10:47:04.581Z,25.40
2018-06-13T10:49:32.945Z,25.30
2018-06-13T10:52:00.991Z,25.40
2018-06-13T10:54:29.186Z,25.40
2018-06-13T10:56:57.237Z,25.40
2018-06-13T10:59:25.834Z,25.40
2018-06-13T11:01:53.886Z,25.40
2018-06-13T11:04:21.930Z,25.40
2018-06-13T11:06:49.998Z,25.40
2018-06-13T11:09:18.055Z,25.40
2018-06-13T11:11:46.110Z,25.40
2018-06-13T11:14:14.171Z,25.40
2018-06-13T11:16:42.275Z,25.40
2018-06-13T11:19:10.358Z,25.40
2018-06-13T11:21:38.423Z,25.50
2018-06-13T11:24:06.474Z,25.50
2018-06-13T11:26:34.535Z,25.50
2018-06-13T11:29:02.685Z,25.50
2018-06-13T11:31:30.807Z,25.50
2018-06-13T11:33:58.802Z,25.60
2018-06-13T11:36:26.866Z,25.60
2018-06-13T11:38:54.926Z,25.60
2018-06-13T11:41:23.017Z,25.70
2018-06-13T11:43:51.362Z,25.70
2018-06-13T11:46:19.640Z,25.70
2018-06-13T11:48:48.042Z,25.70
2018-06-13T11:51:16.111Z,25.70
2018-06-13T11:53:44.171Z,25.60
2018-06-13T11:56:12.247Z,25.70
2018-06-13T11:58:40.326Z,25.70
2018-06-13T12:01:08.717Z,25.70
2018-06-13T12:03:36.833Z,25.70
2018-06-13T12:06:04.940Z,25.70
2018-06-13T12:08:32.962Z,25.70
2018-06-13T12:11:01.041Z,25.60
2018-06-13T12:13:29.078Z,25.60
2018-06-13T12:15:57.163Z,25.60
2018-06-13T12:18:25.212Z,25.60
2018-06-13T12:20:53.282Z,25.50
2018-06-13T12:23:21.609Z,25.50
2018-06-13T12:25:49.734Z,25.60
2018-06-13T12:28:17.902Z,25.50
2018-06-13T12:30:45.959Z,25.50
2018-06-13T12:33:14.335Z,25.50
2018-06-13T12:35:42.402Z,25.50
2018-06-13T12:38:10.489Z,25.50
2018-06-13T12:40:38.586Z,25.50
2018-06-13T12:43:06.667Z,25.50
2018-06-13T12:45:34.749Z,25.50
2018-06-13T12:48:02.792Z,25.50
2018-06-13T12:50:30.870Z,25.50
2018-06-13T12:52:58.922Z,25.50
2018-06-13T12:55:27.250Z,25.50
2018-06-13T12:57:55.318Z,25.50
2018-06-13T13:00:23.388Z,25.50
2018-06-13T13:02:51.461Z,25.50
2018-06-13T13:05:19.567Z,25.50
2018-06-13T13:07:47.622Z,25.50
2018-06-13T13:10:15.751Z,25.50
2018-06-13T13:12:43.818Z,25.50
2018-06-13T13:15:11.818Z,25.50
2018-06-13T13:17:39.919Z,25.50
2018-06-13T13:20:08.128Z,25.50
2018-06-13T13:22:36.154Z,25.60
2018-06-13T13:25:04.260Z,25.60
2018-06-13T13:27:32.326Z,25.60
2018-06-13T13:30:00.405Z,25.60
2018-06-13T13:32:28.480Z,25.60
2018-06-13T13:34:56.535Z,25.70
2018-06-13T13:37:24.611Z,25.70
2018-06-13T13:39:52.770Z,25.70
2018-06-13T13:42:20.835Z,25.70
2018-06-13T13:44:48.916Z,25.60
2018-06-13T13:47:16.987Z,25.60
2018-06-13T13:49:45.385Z,25.50
2018-06-13T13:52:13.470Z,25.50
2018-06-13T13:54:41.527Z,25.50
2018-06-13T13:57:09.598Z,25.50
2018-06-13T13:59:37.663Z,25.50
2018-06-13T14:02:05.752Z,25.50
2018-06-13T14:04:33.834Z,25.60
2018-06-13T14:07:01.914Z,25.60
2018-06-13T14:09:29.970Z,25.60
2018-06-13T14:11:58.026Z,25.60
2018-06-13T14:14:26.383Z,25.60
2018-06-13T14:16:54.770Z,25.60
2018-06-13T14:19:22.904Z,25.60
2018-06-13T14:21:50.987Z,25.60
2018-06-13T14:24:19.043Z,25.60
2018-06-13T14:26:47.423Z,25.60
2018-06-13T14:31:43.343Z,25.60
2018-06-13T14:34:11.532Z,25.60
2018-06-13T14:36:39.595Z,25.60
2018-06-13T14:39:09.239Z,25.60
2018-06-13T14:41:37.727Z,25.60
2018-06-13T14:44:05.914Z,25.60
2018-06-13T14:46:33.970Z,25.60
2018-06-13T14:49:02.158Z,25.60
2018-06-13T14:51:30.211Z,25.60
2018-06-13T14:53:59.428Z,25.60
2018-06-13T14:56:29.394Z,25.60
2018-06-13T14:58:58.532Z,25.60
2018-06-13T15:01:26.582Z,25.60
2018-06-13T15:03:54.650Z,25.60
2018-06-13T15:06:23.447Z,25.60
2018-06-13T15:08:51.538Z,25.60
2018-06-13T15:11:19.628Z,25.60
2018-06-13T15:13:47.687Z,25.60
2018-06-13T15:16:15.794Z,25.60
2018-06-13T15:18:43.858Z,25.60
2018-06-13T15:21:11.959Z,25.60
2018-06-13T15:23:40.022Z,25.60
2018-06-13T15:26:08.355Z,25.60
2018-06-13T15:28:36.414Z,25.60
2018-06-13T15:31:04.483Z,25.60
2018-06-13T15:33:32.556Z,25.60
2018-06-13T15:36:00.625Z,25.50
2018-06-13T15:38:29.243Z,25.50
2018-06-13T15:40:57.303Z,25.60
2018-06-13T15:43:25.467Z,25.50
2018-06-13T15:45:53.525Z,25.50
2018-06-13T15:48:21.599Z,25.50
2018-06-13T15:50:49.660Z,25.50
2018-06-13T15:53:17.766Z,25.50
2018-06-13T15:55:45.822Z,25.50
2018-06-13T15:58:13.899Z,25.50
2018-06-13T16:00:42.399Z,25.50
2018-06-13T16:03:10.466Z,25.50
2018-06-13T16:05:38.537Z,25.50
2018-06-13T16:08:06.997Z,25.50
2018-06-13T16:10:35.051Z,25.50
2018-06-13T16:13:03.126Z,25.50
2018-06-13T16:15:31.187Z,25.50
2018-06-13T16:17:59.471Z,25.50
2018-06-13T16:20:27.523Z,25.50
2018-06-13T16:22:55.708Z,25.50
2018-06-13T16:25:23.785Z,25.50
2018-06-13T16:27:51.862Z,25.50
2018-06-13T16:30:20.170Z,25.50
2018-06-13T16:32:48.229Z,25.50
2018-06-13T16:35:16.290Z,25.50
2018-06-13T16:37:44.342Z,25.50
2018-06-13T16:40:12.690Z,25.50
2018-06-13T16:42:40.738Z,25.50
2018-06-13T16:45:08.798Z,25.50
2018-06-13T16:47:37.153Z,25.50
2018-06-13T16:50:16.742Z,25.50
2018-06-13T16:53:54.651Z,25.50
2018-06-13T16:56:22.934Z,25.50
2018-06-13T16:58:51.731Z,25.50
2018-06-13T17:01:20.109Z,25.50
2018-06-13T17:03:48.170Z,25.50
2018-06-13T17:06:16.215Z,25.50
2018-06-13T17:08:44.281Z,25.50
2018-06-13T17:11:12.335Z,25.50
2018-06-13T17:13:40.402Z,25.40
2018-06-13T17:16:08.503Z,25.50
2018-06-13T17:18:36.581Z,25.50
2018-06-13T17:21:04.947Z,25.50
2018-06-13T17:23:33.059Z,25.50
2018-06-13T17:26:01.422Z,25.50
2018-06-13T17:28:29.479Z,25.50
2018-06-13T17:30:57.597Z,25.50
2018-06-13T17:33:25.648Z,25.50
2018-06-13T17:38:22.041Z,25.50
2018-06-13T17:40:50.123Z,25.40
2018-06-13T17:43:18.183Z,25.50
2018-06-13T17:45:46.255Z,25.50
2018-06-13T17:48:14.310Z,25.40
2018-06-13T17:50:42.545Z,25.40
2018-06-13T17:53:10.590Z,25.40
2018-06-13T17:55:38.654Z,25.50
2018-06-13T17:58:06.708Z,25.40
2018-06-13T18:00:34.778Z,25.40
2018-06-13T18:03:02.827Z,25.40
2018-06-13T18:05:31.146Z,25.40
2018-06-13T18:07:59.206Z,25.40
2018-06-13T18:10:27.286Z,25.40
2018-06-13T18:12:55.363Z,25.40
2018-06-13T18:15:23.422Z,25.40
2018-06-13T18:17:51.490Z,25.40
2018-06-13T18:20:19.616Z,25.40
2018-06-13T18:22:47.675Z,25.40
2018-06-13T18:25:15.747Z,25.40
2018-06-13T18:27:43.799Z,25.40
2018-06-13T18:30:11.876Z,25.40
2018-06-13T18:32:39.954Z,25.40
2018-06-13T18:35:08.023Z,25.40
2018-06-13T18:37:36.079Z,25.40
2018-06-13T18:40:04.559Z,25.40
2018-06-13T18:42:32.590Z,25.40
2018-06-13T18:45:00.648Z,25.40
2018-06-13T18:47:28.714Z,25.40
2018-06-13T18:49:56.788Z,25.40
2018-06-13T18:52:24.846Z,25.40
2018-06-13T18:54:52.922Z,25.40
2018-06-13T18:57:20.976Z,25.40
2018-06-13T18:59:49.042Z,25.40
2018-06-13T19:02:17.098Z,25.40
2018-06-13T19:04:45.432Z,25.40
2018-06-13T19:07:13.487Z,25.40
2018-06-13T19:09:41.544Z,25.40
2018-06-13T19:12:09.599Z,25.40
2018-06-13T19:14:37.659Z,25.40
2018-06-13T19:17:05.749Z,25.40
2018-06-13T19:19:33.810Z,25.40
2018-06-13T19:22:01.875Z,25.40
2018-06-13T19:24:29.923Z,25.40
2018-06-13T19:26:57.994Z,25.40
2018-06-13T19:29:26.246Z,25.30
2018-06-13T19:31:54.314Z,25.30
2018-06-13T19:34:22.368Z,25.30
2018-06-13T19:36:50.435Z,25.30
2018-06-13T19:39:18.510Z,25.30
2018-06-13T19:41:46.586Z,25.30
2018-06-13T19:44:14.646Z,25.30
2018-06-13T19:46:42.693Z,25.30
2018-06-13T19:49:10.743Z,25.30
2018-06-13T19:51:38.811Z,25.30
2018-06-13T19:54:12.310Z,25.30
2018-06-13T19:56:40.375Z,25.30
2018-06-13T19:59:08.430Z,25.30
2018-06-13T20:01:36.495Z,25.30
2018-06-13T20:04:10.065Z,25.30
2018-06-13T20:06:39.281Z,25.30
2018-06-13T20:09:08.687Z,25.30
2018-06-13T20:11:36.863Z,25.30
2018-06-13T20:14:10.387Z,25.30
2018-06-13T20:16:50.887Z,25.30
2018-06-13T20:19:31.223Z,25.30
2018-06-13T20:21:59.862Z,25.30
2018-06-13T20:24:27.923Z,25.30
2018-06-13T20:27:01.603Z,25.30
2018-06-13T20:29:35.315Z,25.30
2018-06-13T20:32:03.415Z,25.30
2018-06-13T20:34:31.466Z,25.30
2018-06-13T20:36:59.598Z,25.30
2018-06-13T20:39:27.931Z,25.30
2018-06-13T20:41:55.990Z,25.30
2018-06-13T20:44:24.070Z,25.30
2018-06-13T20:46:52.118Z,25.30
2018-06-13T20:49:20.167Z,25.30
2018-06-13T20:51:48.227Z,25.30
2018-06-13T20:54:16.555Z,25.30
2018-06-13T20:56:44.606Z,25.30
2018-06-13T20:59:12.667Z,25.30
2018-06-13T21:01:40.726Z,25.20
2018-06-13T21:04:08.778Z,25.20
2018-06-13T21:06:36.839Z,25.20
2018-06-13T21:09:07.363Z,25.20
2018-06-13T21:11:35.422Z,25.20
2018-06-13T21:14:03.478Z,25.20
2018-06-13T21:18:59.511Z,25.20
2018-06-13T21:21:27.558Z,25.20
2018-06-13T21:23:55.610Z,25.20
2018-06-13T21:26:23.666Z,25.20
2018-06-13T21:28:51.726Z,25.20
2018-06-13T21:31:19.775Z,25.20
2018-06-13T21:33:47.847Z,25.20
2018-06-13T21:36:15.894Z,25.20
2018-06-13T21:38:43.956Z,25.20
2018-06-13T21:41:12.312Z,25.20
2018-06-13T21:43:40.368Z,25.20
2018-06-13T21:46:08.415Z,25.20
2018-06-13T21:48:36.470Z,25.20
2018-06-13T21:51:04.566Z,25.20
2018-06-13T21:53:32.884Z,25.20
2018-06-13T21:56:00.935Z,25.20
2018-06-13T21:58:29.078Z,25.20
2018-06-13T22:00:57.454Z,25.20
2018-06-13T22:03:25.515Z,25.20
2018-06-13T22:05:53.575Z,25.10
2018-06-13T22:08:21.639Z,25.10
2018-06-13T22:10:49.690Z,25.10
2018-06-13T22:13:17.755Z,25.10
2018-06-13T22:15:45.815Z,25.10
2018-06-13T22:18:13.870Z,25.10
2018-06-13T22:20:41.921Z,25.10
2018-06-13T22:23:09.991Z,25.10
2018-06-13T22:25:38.050Z,25.10
2018-06-13T22:28:06.130Z,25.10
2018-06-13T22:30:34.464Z,25.10
2018-06-13T22:33:02.519Z,25.10
2018-06-13T22:35:30.882Z,25.10
2018-06-13T22:37:59.159Z,25.10
2018-06-13T22:40:27.200Z,25.10
2018-06-13T22:42:55.487Z,25.10
2018-06-13T22:45:23.539Z,25.10
2018-06-13T22:47:51.618Z,25.10
2018-06-13T22:50:19.882Z,25.10
2018-06-13T22:52:47.942Z,25.10
2018-06-13T22:55:15.982Z,25.10
2018-06-13T22:57:44.378Z,25.10
2018-06-13T23:00:14.622Z,25.10
2018-06-13T23:02:42.915Z,25.10
2018-06-13T23:05:10.970Z,25.10
2018-06-13T23:07:39.027Z,25.10
2018-06-13T23:10:07.092Z,25.10
2018-06-13T23:12:35.196Z,25.10
2018-06-13T23:15:03.283Z,25.10
2018-06-13T23:17:31.343Z,25.10
2018-06-13T23:19:59.412Z,25.10
2018-06-13T23:22:27.455Z,25.10
2018-06-13T23:24:55.522Z,25.10
2018-06-13T23:27:23.896Z,25.10
2018-06-13T23:32:19.935Z,25.10
2018-06-13T23:34:48.011Z,25.10
2018-06-13T23:37:16.059Z,25.10
2018-06-13T23:39:44.124Z,25.10
2018-06-13T23:42:12.179Z,25.10
2018-06-13T23:44:40.239Z,25.10
2018-06-13T23:47:08.294Z,25.00
2018-06-13T23:49:36.438Z,25.10
2018-06-13T23:52:04.506Z,25.00
2018-06-13T23:54:32.578Z,25.10
2018-06-13T23:57:00.859Z,25.00
2018-06-13T23:59:28.914Z,25.10
